sensor_id;sensor_type;location;lat;lon;timestamp;P1;durP1;ratioP1;P2;durP2;ratioP2
40449;SDS011;41787;53.570;10.032;2022-12-20T00:00:42;9.02;;;5.80;;
40449;SDS011;41787;53.570;10.032;2022-12-20T00:03:08;11.25;;;6.68;;
40449;SDS011;41787;53.570;10.032;2022-12-20T00:05:35;13.57;;;6.57;;
40449;SDS011;41787;53.570;10.032;2022-12-20T00:08:01;9.77;;;6.05;;
40449;SDS011;41787;53.570;10.032;2022-12-20T00:10:27;11.98;;;6.00;;
40449;SDS011;41787;53.570;10.032;2022-12-20T00:12:53;9.13;;;5.88;;
40449;SDS011;41787;53.570;10.032;2022-12-20T00:15:19;10.70;;;6.72;;
40449;SDS011;41787;53.570;10.032;2022-12-20T00:17:45;11.35;;;5.63;;
40449;SDS011;41787;53.570;10.032;2022-12-20T00:20:11;11.25;;;6.22;;
40449;SDS011;41787;53.570;10.032;2022-12-20T00:22:37;10.80;;;6.32;;
40449;SDS011;41787;53.570;10.032;2022-12-20T00:25:03;12.43;;;5.38;;
40449;SDS011;41787;53.570;10.032;2022-12-20T00:27:29;9.68;;;5.78;;
40449;SDS011;41787;53.570;10.032;2022-12-20T00:29:55;8.77;;;5.85;;
40449;SDS011;41787;53.570;10.032;2022-12-20T00:32:21;7.80;;;5.22;;
40449;SDS011;41787;53.570;10.032;2022-12-20T00:34:47;10.60;;;5.38;;
40449;SDS011;41787;53.570;10.032;2022-12-20T00:37:13;12.05;;;6.72;;
40449;SDS011;41787;53.570;10.032;2022-12-20T00:39:39;10.23;;;5.97;;
40449;SDS011;41787;53.570;10.032;2022-12-20T00:42:05;10.55;;;5.95;;
40449;SDS011;41787;53.570;10.032;2022-12-20T00:44:31;10.10;;;6.35;;
40449;SDS011;41787;53.570;10.032;2022-12-20T00:46:57;10.32;;;5.90;;
40449;SDS011;41787;53.570;10.032;2022-12-20T00:49:23;10.55;;;6.47;;
40449;SDS011;41787;53.570;10.032;2022-12-20T00:51:49;10.25;;;5.93;;
40449;SDS011;41787;53.570;10.032;2022-12-20T00:54:15;9.40;;;5.93;;
40449;SDS011;41787;53.570;10.032;2022-12-20T00:56:41;11.95;;;5.70;;
40449;SDS011;41787;53.570;10.032;2022-12-20T00:59:07;10.55;;;5.95;;
40449;SDS011;41787;53.570;10.032;2022-12-20T01:01:33;10.35;;;5.93;;
40449;SDS011;41787;53.570;10.032;2022-12-20T01:03:59;11.68;;;6.35;;
40449;SDS011;41787;53.570;10.032;2022-12-20T01:06:25;12.23;;;5.90;;
40449;SDS011;41787;53.570;10.032;2022-12-20T01:08:52;12.05;;;5.25;;
40449;SDS011;41787;53.570;10.032;2022-12-20T01:11:20;9.18;;;5.70;;
40449;SDS011;41787;53.570;10.032;2022-12-20T01:13:47;9.77;;;5.38;;
40449;SDS011;41787;53.570;10.032;2022-12-20T01:16:15;9.35;;;6.05;;
40449;SDS011;41787;53.570;10.032;2022-12-20T01:18:42;9.35;;;6.65;;
40449;SDS011;41787;53.570;10.032;2022-12-20T01:21:09;10.57;;;5.97;;
40449;SDS011;41787;53.570;10.032;2022-12-20T01:23:35;9.45;;;6.13;;
40449;SDS011;41787;53.570;10.032;2022-12-20T01:26:02;13.45;;;6.10;;
40449;SDS011;41787;53.570;10.032;2022-12-20T01:28:33;9.27;;;5.80;;
40449;SDS011;41787;53.570;10.032;2022-12-20T01:30:59;12.43;;;6.10;;
40449;SDS011;41787;53.570;10.032;2022-12-20T01:33:25;11.13;;;6.45;;
40449;SDS011;41787;53.570;10.032;2022-12-20T01:35:55;9.00;;;5.72;;
40449;SDS011;41787;53.570;10.032;2022-12-20T01:38:21;9.25;;;5.60;;
40449;SDS011;41787;53.570;10.032;2022-12-20T01:40:47;8.85;;;5.43;;
40449;SDS011;41787;53.570;10.032;2022-12-20T01:43:13;8.77;;;6.20;;
40449;SDS011;41787;53.570;10.032;2022-12-20T01:45:39;10.68;;;6.47;;
40449;SDS011;41787;53.570;10.032;2022-12-20T01:48:05;10.82;;;6.72;;
40449;SDS011;41787;53.570;10.032;2022-12-20T01:50:32;9.52;;;5.78;;
40449;SDS011;41787;53.570;10.032;2022-12-20T01:52:59;9.27;;;6.20;;
40449;SDS011;41787;53.570;10.032;2022-12-20T01:55:27;11.43;;;6.00;;
40449;SDS011;41787;53.570;10.032;2022-12-20T02:00:20;11.05;;;6.28;;
40449;SDS011;41787;53.570;10.032;2022-12-20T02:02:47;10.20;;;6.13;;
40449;SDS011;41787;53.570;10.032;2022-12-20T02:05:14;11.70;;;7.05;;
40449;SDS011;41787;53.570;10.032;2022-12-20T02:07:40;11.57;;;6.25;;
40449;SDS011;41787;53.570;10.032;2022-12-20T02:10:08;9.10;;;5.85;;
40449;SDS011;41787;53.570;10.032;2022-12-20T02:12:39;10.27;;;6.10;;
40449;SDS011;41787;53.570;10.032;2022-12-20T02:17:46;8.43;;;4.93;;
40449;SDS011;41787;53.570;10.032;2022-12-20T02:20:21;5.72;;;4.07;;
40449;SDS011;41787;53.570;10.032;2022-12-20T02:30:34;7.60;;;4.72;;
40449;SDS011;41787;53.570;10.032;2022-12-20T02:33:04;7.80;;;4.30;;
40449;SDS011;41787;53.570;10.032;2022-12-20T02:35:33;8.98;;;4.65;;
40449;SDS011;41787;53.570;10.032;2022-12-20T02:38:01;10.00;;;4.50;;
40449;SDS011;41787;53.570;10.032;2022-12-20T02:40:37;7.57;;;4.47;;
40449;SDS011;41787;53.570;10.032;2022-12-20T02:43:05;9.63;;;4.72;;
40449;SDS011;41787;53.570;10.032;2022-12-20T02:45:52;9.13;;;4.70;;
40449;SDS011;41787;53.570;10.032;2022-12-20T02:48:19;6.93;;;4.57;;
40449;SDS011;41787;53.570;10.032;2022-12-20T02:50:48;10.45;;;6.00;;
40449;SDS011;41787;53.570;10.032;2022-12-20T02:53:14;8.70;;;4.53;;
40449;SDS011;41787;53.570;10.032;2022-12-20T02:55:49;7.88;;;5.10;;
40449;SDS011;41787;53.570;10.032;2022-12-20T02:58:20;9.38;;;5.03;;
40449;SDS011;41787;53.570;10.032;2022-12-20T03:00:48;10.13;;;4.65;;
40449;SDS011;41787;53.570;10.032;2022-12-20T03:03:15;9.05;;;3.97;;
40449;SDS011;41787;53.570;10.032;2022-12-20T03:05:48;9.80;;;4.53;;
40449;SDS011;41787;53.570;10.032;2022-12-20T03:08:15;8.23;;;4.25;;
40449;SDS011;41787;53.570;10.032;2022-12-20T03:10:41;7.32;;;4.05;;
40449;SDS011;41787;53.570;10.032;2022-12-20T03:15:52;11.45;;;4.40;;
40449;SDS011;41787;53.570;10.032;2022-12-20T03:18:18;6.53;;;3.47;;
40449;SDS011;41787;53.570;10.032;2022-12-20T03:20:44;9.43;;;4.20;;
40449;SDS011;41787;53.570;10.032;2022-12-20T03:23:10;8.73;;;3.80;;
40449;SDS011;41787;53.570;10.032;2022-12-20T03:25:36;5.00;;;3.78;;
40449;SDS011;41787;53.570;10.032;2022-12-20T03:28:02;6.20;;;4.03;;
40449;SDS011;41787;53.570;10.032;2022-12-20T03:30:28;7.35;;;3.80;;
40449;SDS011;41787;53.570;10.032;2022-12-20T03:32:54;7.03;;;4.22;;
40449;SDS011;41787;53.570;10.032;2022-12-20T03:35:20;8.05;;;4.70;;
40449;SDS011;41787;53.570;10.032;2022-12-20T03:37:46;7.68;;;4.47;;
40449;SDS011;41787;53.570;10.032;2022-12-20T03:40:12;5.75;;;4.40;;
40449;SDS011;41787;53.570;10.032;2022-12-20T03:42:39;6.32;;;4.32;;
40449;SDS011;41787;53.570;10.032;2022-12-20T03:45:05;7.18;;;4.70;;
40449;SDS011;41787;53.570;10.032;2022-12-20T03:47:32;7.60;;;4.35;;
40449;SDS011;41787;53.570;10.032;2022-12-20T03:49:57;7.18;;;4.15;;
40449;SDS011;41787;53.570;10.032;2022-12-20T03:52:23;11.98;;;4.50;;
40449;SDS011;41787;53.570;10.032;2022-12-20T03:54:49;6.15;;;4.40;;
40449;SDS011;41787;53.570;10.032;2022-12-20T03:57:15;8.02;;;4.43;;
40449;SDS011;41787;53.570;10.032;2022-12-20T03:59:41;5.13;;;3.45;;
40449;SDS011;41787;53.570;10.032;2022-12-20T04:02:07;6.97;;;3.60;;
40449;SDS011;41787;53.570;10.032;2022-12-20T04:04:33;5.47;;;3.63;;
40449;SDS011;41787;53.570;10.032;2022-12-20T04:06:59;5.30;;;3.20;;
40449;SDS011;41787;53.570;10.032;2022-12-20T04:09:25;10.30;;;5.38;;
40449;SDS011;41787;53.570;10.032;2022-12-20T04:11:51;5.55;;;3.60;;
40449;SDS011;41787;53.570;10.032;2022-12-20T04:14:17;7.32;;;5.18;;
40449;SDS011;41787;53.570;10.032;2022-12-20T04:16:43;6.97;;;3.83;;
40449;SDS011;41787;53.570;10.032;2022-12-20T04:19:09;6.07;;;4.00;;
40449;SDS011;41787;53.570;10.032;2022-12-20T04:21:36;7.88;;;4.55;;
40449;SDS011;41787;53.570;10.032;2022-12-20T04:24:02;6.90;;;4.15;;
40449;SDS011;41787;53.570;10.032;2022-12-20T04:26:28;8.55;;;3.60;;
40449;SDS011;41787;53.570;10.032;2022-12-20T04:28:54;5.07;;;3.72;;
40449;SDS011;41787;53.570;10.032;2022-12-20T04:31:20;7.75;;;3.95;;
40449;SDS011;41787;53.570;10.032;2022-12-20T04:33:46;5.45;;;3.70;;
40449;SDS011;41787;53.570;10.032;2022-12-20T04:36:12;6.72;;;4.00;;
40449;SDS011;41787;53.570;10.032;2022-12-20T04:38:38;8.07;;;4.20;;
40449;SDS011;41787;53.570;10.032;2022-12-20T04:41:04;11.35;;;4.53;;
40449;SDS011;41787;53.570;10.032;2022-12-20T04:43:30;8.25;;;4.28;;
40449;SDS011;41787;53.570;10.032;2022-12-20T04:45:56;6.38;;;4.05;;
40449;SDS011;41787;53.570;10.032;2022-12-20T04:48:23;7.25;;;4.80;;
40449;SDS011;41787;53.570;10.032;2022-12-20T04:50:51;9.95;;;4.25;;
40449;SDS011;41787;53.570;10.032;2022-12-20T04:53:17;7.00;;;4.38;;
40449;SDS011;41787;53.570;10.032;2022-12-20T04:56:02;6.25;;;4.28;;
40449;SDS011;41787;53.570;10.032;2022-12-20T04:58:28;6.38;;;4.55;;
40449;SDS011;41787;53.570;10.032;2022-12-20T05:00:54;8.57;;;4.22;;
40449;SDS011;41787;53.570;10.032;2022-12-20T05:03:21;7.43;;;4.00;;
40449;SDS011;41787;53.570;10.032;2022-12-20T05:05:47;7.20;;;3.75;;
40449;SDS011;41787;53.570;10.032;2022-12-20T05:08:13;8.43;;;4.50;;
40449;SDS011;41787;53.570;10.032;2022-12-20T05:10:39;9.68;;;3.90;;
40449;SDS011;41787;53.570;10.032;2022-12-20T05:13:06;7.88;;;3.78;;
40449;SDS011;41787;53.570;10.032;2022-12-20T05:15:32;5.30;;;3.50;;
40449;SDS011;41787;53.570;10.032;2022-12-20T05:17:58;8.10;;;3.83;;
40449;SDS011;41787;53.570;10.032;2022-12-20T05:20:28;7.43;;;3.75;;
40449;SDS011;41787;53.570;10.032;2022-12-20T05:22:54;11.43;;;4.00;;
40449;SDS011;41787;53.570;10.032;2022-12-20T05:25:42;10.15;;;4.75;;
40449;SDS011;41787;53.570;10.032;2022-12-20T05:28:27;9.38;;;4.05;;
40449;SDS011;41787;53.570;10.032;2022-12-20T05:30:53;8.75;;;4.20;;
40449;SDS011;41787;53.570;10.032;2022-12-20T05:33:19;7.25;;;4.47;;
40449;SDS011;41787;53.570;10.032;2022-12-20T05:35:45;8.70;;;4.88;;
40449;SDS011;41787;53.570;10.032;2022-12-20T05:38:11;6.55;;;4.28;;
40449;SDS011;41787;53.570;10.032;2022-12-20T05:40:38;6.75;;;4.90;;
40449;SDS011;41787;53.570;10.032;2022-12-20T05:43:04;7.85;;;4.93;;
40449;SDS011;41787;53.570;10.032;2022-12-20T05:45:30;9.32;;;4.75;;
40449;SDS011;41787;53.570;10.032;2022-12-20T05:47:56;8.60;;;5.63;;
40449;SDS011;41787;53.570;10.032;2022-12-20T05:50:22;9.25;;;5.35;;
40449;SDS011;41787;53.570;10.032;2022-12-20T05:52:48;12.68;;;6.05;;
40449;SDS011;41787;53.570;10.032;2022-12-20T05:55:14;10.27;;;6.00;;
40449;SDS011;41787;53.570;10.032;2022-12-20T05:57:40;6.93;;;5.35;;
40449;SDS011;41787;53.570;10.032;2022-12-20T06:00:07;10.73;;;5.47;;
40449;SDS011;41787;53.570;10.032;2022-12-20T06:02:33;15.55;;;5.18;;
40449;SDS011;41787;53.570;10.032;2022-12-20T06:04:59;11.70;;;5.35;;
40449;SDS011;41787;53.570;10.032;2022-12-20T06:07:25;10.52;;;5.13;;
40449;SDS011;41787;53.570;10.032;2022-12-20T06:09:53;11.73;;;6.57;;
40449;SDS011;41787;53.570;10.032;2022-12-20T06:12:19;9.18;;;5.15;;
40449;SDS011;41787;53.570;10.032;2022-12-20T06:14:45;10.25;;;8.32;;
40449;SDS011;41787;53.570;10.032;2022-12-20T06:17:11;12.70;;;6.07;;
40449;SDS011;41787;53.570;10.032;2022-12-20T06:19:37;10.65;;;5.25;;
40449;SDS011;41787;53.570;10.032;2022-12-20T06:22:06;9.85;;;5.55;;
40449;SDS011;41787;53.570;10.032;2022-12-20T06:24:33;10.32;;;5.43;;
40449;SDS011;41787;53.570;10.032;2022-12-20T06:26:59;11.00;;;6.30;;
40449;SDS011;41787;53.570;10.032;2022-12-20T06:29:25;9.98;;;5.40;;
40449;SDS011;41787;53.570;10.032;2022-12-20T06:31:51;11.55;;;5.90;;
40449;SDS011;41787;53.570;10.032;2022-12-20T06:34:17;9.65;;;5.07;;
40449;SDS011;41787;53.570;10.032;2022-12-20T06:36:44;7.78;;;5.57;;
40449;SDS011;41787;53.570;10.032;2022-12-20T06:39:10;9.85;;;5.07;;
40449;SDS011;41787;53.570;10.032;2022-12-20T06:41:36;8.45;;;5.35;;
40449;SDS011;41787;53.570;10.032;2022-12-20T06:44:02;8.48;;;5.63;;
40449;SDS011;41787;53.570;10.032;2022-12-20T06:46:28;13.25;;;6.05;;
40449;SDS011;41787;53.570;10.032;2022-12-20T06:48:55;10.55;;;6.47;;
40449;SDS011;41787;53.570;10.032;2022-12-20T06:51:21;10.15;;;6.43;;
40449;SDS011;41787;53.570;10.032;2022-12-20T06:53:47;12.05;;;6.80;;
40449;SDS011;41787;53.570;10.032;2022-12-20T06:56:13;11.07;;;6.07;;
40449;SDS011;41787;53.570;10.032;2022-12-20T06:58:39;12.52;;;6.45;;
40449;SDS011;41787;53.570;10.032;2022-12-20T07:01:05;10.27;;;5.88;;
40449;SDS011;41787;53.570;10.032;2022-12-20T07:03:31;10.85;;;6.13;;
40449;SDS011;41787;53.570;10.032;2022-12-20T07:05:57;12.35;;;6.85;;
40449;SDS011;41787;53.570;10.032;2022-12-20T07:08:23;13.18;;;5.65;;
40449;SDS011;41787;53.570;10.032;2022-12-20T07:10:49;11.23;;;6.00;;
40449;SDS011;41787;53.570;10.032;2022-12-20T07:13:16;14.35;;;6.45;;
40449;SDS011;41787;53.570;10.032;2022-12-20T07:15:42;12.40;;;6.10;;
40449;SDS011;41787;53.570;10.032;2022-12-20T07:18:08;7.38;;;5.10;;
40449;SDS011;41787;53.570;10.032;2022-12-20T07:20:34;11.20;;;5.97;;
40449;SDS011;41787;53.570;10.032;2022-12-20T07:23:00;8.77;;;6.03;;
40449;SDS011;41787;53.570;10.032;2022-12-20T07:25:27;17.17;;;6.93;;
40449;SDS011;41787;53.570;10.032;2022-12-20T07:27:52;14.98;;;7.75;;
40449;SDS011;41787;53.570;10.032;2022-12-20T07:30:19;10.98;;;6.95;;
40449;SDS011;41787;53.570;10.032;2022-12-20T07:32:45;10.13;;;5.97;;
40449;SDS011;41787;53.570;10.032;2022-12-20T07:35:11;11.73;;;6.60;;
40449;SDS011;41787;53.570;10.032;2022-12-20T07:37:37;13.30;;;6.80;;
40449;SDS011;41787;53.570;10.032;2022-12-20T07:40:03;8.57;;;6.72;;
40449;SDS011;41787;53.570;10.032;2022-12-20T07:42:29;10.82;;;6.85;;
40449;SDS011;41787;53.570;10.032;2022-12-20T07:44:55;9.55;;;7.07;;
40449;SDS011;41787;53.570;10.032;2022-12-20T07:47:21;13.15;;;6.93;;
40449;SDS011;41787;53.570;10.032;2022-12-20T07:49:47;12.93;;;7.25;;
40449;SDS011;41787;53.570;10.032;2022-12-20T07:52:13;10.80;;;6.97;;
40449;SDS011;41787;53.570;10.032;2022-12-20T07:54:45;12.43;;;6.97;;
40449;SDS011;41787;53.570;10.032;2022-12-20T07:57:47;14.98;;;7.78;;
40449;SDS011;41787;53.570;10.032;2022-12-20T08:00:06;12.77;;;7.45;;
40449;SDS011;41787;53.570;10.032;2022-12-20T08:02:34;11.07;;;7.30;;
40449;SDS011;41787;53.570;10.032;2022-12-20T08:05:02;14.02;;;7.65;;
40449;SDS011;41787;53.570;10.032;2022-12-20T08:07:30;11.55;;;7.25;;
40449;SDS011;41787;53.570;10.032;2022-12-20T08:09:56;15.18;;;7.75;;
40449;SDS011;41787;53.570;10.032;2022-12-20T08:12:22;12.95;;;7.45;;
40449;SDS011;41787;53.570;10.032;2022-12-20T08:14:50;13.50;;;7.80;;
40449;SDS011;41787;53.570;10.032;2022-12-20T08:17:20;12.60;;;7.35;;
40449;SDS011;41787;53.570;10.032;2022-12-20T08:19:45;16.15;;;7.88;;
40449;SDS011;41787;53.570;10.032;2022-12-20T08:22:13;14.60;;;7.20;;
40449;SDS011;41787;53.570;10.032;2022-12-20T08:24:39;13.75;;;8.50;;
40449;SDS011;41787;53.570;10.032;2022-12-20T08:27:05;15.35;;;7.75;;
40449;SDS011;41787;53.570;10.032;2022-12-20T08:29:31;12.02;;;8.05;;
40449;SDS011;41787;53.570;10.032;2022-12-20T08:31:57;15.48;;;7.55;;
40449;SDS011;41787;53.570;10.032;2022-12-20T08:34:23;12.75;;;8.30;;
40449;SDS011;41787;53.570;10.032;2022-12-20T08:36:49;13.20;;;8.15;;
40449;SDS011;41787;53.570;10.032;2022-12-20T08:39:15;20.95;;;8.00;;
40449;SDS011;41787;53.570;10.032;2022-12-20T08:41:41;15.40;;;8.60;;
40449;SDS011;41787;53.570;10.032;2022-12-20T08:44:07;12.68;;;7.68;;
40449;SDS011;41787;53.570;10.032;2022-12-20T08:46:34;12.25;;;7.38;;
40449;SDS011;41787;53.570;10.032;2022-12-20T08:49:01;15.07;;;7.60;;
40449;SDS011;41787;53.570;10.032;2022-12-20T08:51:27;13.82;;;7.78;;
40449;SDS011;41787;53.570;10.032;2022-12-20T08:53:53;11.00;;;6.82;;
40449;SDS011;41787;53.570;10.032;2022-12-20T08:56:19;10.68;;;7.72;;
40449;SDS011;41787;53.570;10.032;2022-12-20T08:58:45;12.73;;;6.70;;
40449;SDS011;41787;53.570;10.032;2022-12-20T09:01:12;11.93;;;7.53;;
40449;SDS011;41787;53.570;10.032;2022-12-20T09:03:39;9.38;;;6.43;;
40449;SDS011;41787;53.570;10.032;2022-12-20T09:06:05;10.18;;;6.53;;
40449;SDS011;41787;53.570;10.032;2022-12-20T09:08:33;10.75;;;6.07;;
40449;SDS011;41787;53.570;10.032;2022-12-20T09:11:06;11.77;;;6.82;;
40449;SDS011;41787;53.570;10.032;2022-12-20T09:13:33;15.85;;;6.80;;
40449;SDS011;41787;53.570;10.032;2022-12-20T09:16:03;9.80;;;6.15;;
40449;SDS011;41787;53.570;10.032;2022-12-20T09:18:29;10.50;;;5.97;;
40449;SDS011;41787;53.570;10.032;2022-12-20T09:21:02;8.23;;;5.50;;
40449;SDS011;41787;53.570;10.032;2022-12-20T09:23:29;10.30;;;6.63;;
40449;SDS011;41787;53.570;10.032;2022-12-20T09:26:00;11.23;;;6.20;;
40449;SDS011;41787;53.570;10.032;2022-12-20T09:28:26;11.43;;;5.93;;
40449;SDS011;41787;53.570;10.032;2022-12-20T09:30:56;11.13;;;6.07;;
40449;SDS011;41787;53.570;10.032;2022-12-20T09:33:22;8.20;;;5.65;;
40449;SDS011;41787;53.570;10.032;2022-12-20T09:35:48;10.00;;;6.15;;
40449;SDS011;41787;53.570;10.032;2022-12-20T09:38:14;14.18;;;6.38;;
40449;SDS011;41787;53.570;10.032;2022-12-20T09:40:43;12.50;;;6.63;;
40449;SDS011;41787;53.570;10.032;2022-12-20T09:43:10;9.27;;;5.47;;
40449;SDS011;41787;53.570;10.032;2022-12-20T09:45:36;14.80;;;6.50;;
40449;SDS011;41787;53.570;10.032;2022-12-20T09:48:02;9.95;;;6.18;;
40449;SDS011;41787;53.570;10.032;2022-12-20T09:53:44;8.60;;;6.05;;
40449;SDS011;41787;53.570;10.032;2022-12-20T09:56:23;14.48;;;6.43;;
40449;SDS011;41787;53.570;10.032;2022-12-20T09:58:56;9.88;;;5.88;;
40449;SDS011;41787;53.570;10.032;2022-12-20T10:01:23;12.45;;;6.22;;
40449;SDS011;41787;53.570;10.032;2022-12-20T10:03:50;11.25;;;5.32;;
40449;SDS011;41787;53.570;10.032;2022-12-20T10:09:04;10.15;;;5.68;;
40449;SDS011;41787;53.570;10.032;2022-12-20T10:14:01;9.83;;;5.70;;
40449;SDS011;41787;53.570;10.032;2022-12-20T10:16:39;12.10;;;7.00;;
40449;SDS011;41787;53.570;10.032;2022-12-20T10:22:06;9.43;;;6.13;;
40449;SDS011;41787;53.570;10.032;2022-12-20T10:24:34;11.60;;;5.88;;
40449;SDS011;41787;53.570;10.032;2022-12-20T10:27:09;10.82;;;6.07;;
40449;SDS011;41787;53.570;10.032;2022-12-20T10:29:36;10.15;;;6.25;;
40449;SDS011;41787;53.570;10.032;2022-12-20T10:32:07;9.13;;;5.65;;
40449;SDS011;41787;53.570;10.032;2022-12-20T10:34:34;10.65;;;5.53;;
40449;SDS011;41787;53.570;10.032;2022-12-20T10:37:13;8.85;;;5.75;;
40449;SDS011;41787;53.570;10.032;2022-12-20T10:39:41;14.07;;;5.80;;
40449;SDS011;41787;53.570;10.032;2022-12-20T10:42:21;9.60;;;5.75;;
40449;SDS011;41787;53.570;10.032;2022-12-20T10:44:48;21.33;;;6.45;;
40449;SDS011;41787;53.570;10.032;2022-12-20T10:47:22;12.68;;;6.13;;
40449;SDS011;41787;53.570;10.032;2022-12-20T10:49:52;10.10;;;5.88;;
40449;SDS011;41787;53.570;10.032;2022-12-20T10:52:32;12.05;;;5.72;;
40449;SDS011;41787;53.570;10.032;2022-12-20T10:54:58;11.07;;;5.38;;
40449;SDS011;41787;53.570;10.032;2022-12-20T10:57:24;8.32;;;5.40;;
40449;SDS011;41787;53.570;10.032;2022-12-20T10:59:52;11.55;;;5.82;;
40449;SDS011;41787;53.570;10.032;2022-12-20T11:02:22;10.05;;;5.20;;
40449;SDS011;41787;53.570;10.032;2022-12-20T11:04:59;11.35;;;5.60;;
40449;SDS011;41787;53.570;10.032;2022-12-20T11:07:26;9.00;;;5.32;;
40449;SDS011;41787;53.570;10.032;2022-12-20T11:09:54;12.65;;;5.18;;
40449;SDS011;41787;53.570;10.032;2022-12-20T11:12:20;15.07;;;5.57;;
40449;SDS011;41787;53.570;10.032;2022-12-20T11:14:46;13.77;;;5.93;;
40449;SDS011;41787;53.570;10.032;2022-12-20T11:19:47;14.82;;;6.00;;
40449;SDS011;41787;53.570;10.032;2022-12-20T11:22:19;9.63;;;6.25;;
40449;SDS011;41787;53.570;10.032;2022-12-20T11:27:39;11.55;;;5.65;;
40449;SDS011;41787;53.570;10.032;2022-12-20T11:37:53;7.75;;;4.72;;
40449;SDS011;41787;53.570;10.032;2022-12-20T11:40:30;7.28;;;4.80;;
40449;SDS011;41787;53.570;10.032;2022-12-20T11:45:30;9.77;;;5.25;;
40449;SDS011;41787;53.570;10.032;2022-12-20T11:53:23;7.10;;;4.45;;
40449;SDS011;41787;53.570;10.032;2022-12-20T11:55:52;7.93;;;4.40;;
40449;SDS011;41787;53.570;10.032;2022-12-20T11:58:24;8.23;;;3.80;;
40449;SDS011;41787;53.570;10.032;2022-12-20T12:03:31;9.00;;;3.90;;
40449;SDS011;41787;53.570;10.032;2022-12-20T12:06:03;7.47;;;4.10;;
40449;SDS011;41787;53.570;10.032;2022-12-20T12:11:14;7.03;;;3.95;;
40449;SDS011;41787;53.570;10.032;2022-12-20T12:13:42;6.38;;;4.03;;
40449;SDS011;41787;53.570;10.032;2022-12-20T12:16:15;5.40;;;3.80;;
40449;SDS011;41787;53.570;10.032;2022-12-20T12:18:42;9.48;;;3.97;;
40449;SDS011;41787;53.570;10.032;2022-12-20T12:24:28;5.43;;;3.67;;
40449;SDS011;41787;53.570;10.032;2022-12-20T12:26:57;8.38;;;3.80;;
40449;SDS011;41787;53.570;10.032;2022-12-20T12:29:25;6.07;;;2.95;;
40449;SDS011;41787;53.570;10.032;2022-12-20T12:40:01;5.15;;;3.00;;
40449;SDS011;41787;53.570;10.032;2022-12-20T12:42:46;7.43;;;3.50;;
40449;SDS011;41787;53.570;10.032;2022-12-20T12:45:19;6.68;;;3.10;;
40449;SDS011;41787;53.570;10.032;2022-12-20T12:47:51;6.00;;;3.28;;
40449;SDS011;41787;53.570;10.032;2022-12-20T12:52:48;6.85;;;3.25;;
40449;SDS011;41787;53.570;10.032;2022-12-20T12:55:34;6.05;;;3.38;;
40449;SDS011;41787;53.570;10.032;2022-12-20T13:11:29;9.40;;;4.28;;
40449;SDS011;41787;53.570;10.032;2022-12-20T13:16:40;12.57;;;4.72;;
40449;SDS011;41787;53.570;10.032;2022-12-20T13:19:10;7.53;;;4.43;;
40449;SDS011;41787;53.570;10.032;2022-12-20T13:21:38;11.40;;;4.85;;
40449;SDS011;41787;53.570;10.032;2022-12-20T13:26:52;8.77;;;5.50;;
40449;SDS011;41787;53.570;10.032;2022-12-20T13:30:22;8.45;;;4.72;;
40449;SDS011;41787;53.570;10.032;2022-12-20T13:32:50;11.30;;;4.85;;
40449;SDS011;41787;53.570;10.032;2022-12-20T13:40:43;10.45;;;4.88;;
40449;SDS011;41787;53.570;10.032;2022-12-20T13:43:14;8.05;;;4.95;;
40449;SDS011;41787;53.570;10.032;2022-12-20T13:45:42;7.95;;;4.80;;
40449;SDS011;41787;53.570;10.032;2022-12-20T13:48:11;9.55;;;4.88;;
40449;SDS011;41787;53.570;10.032;2022-12-20T13:50:51;11.65;;;5.38;;
40449;SDS011;41787;53.570;10.032;2022-12-20T13:53:18;11.18;;;5.70;;
40449;SDS011;41787;53.570;10.032;2022-12-20T13:55:45;8.75;;;5.75;;
40449;SDS011;41787;53.570;10.032;2022-12-20T13:58:16;8.40;;;5.22;;
40449;SDS011;41787;53.570;10.032;2022-12-20T14:00:43;8.43;;;5.20;;
40449;SDS011;41787;53.570;10.032;2022-12-20T14:03:20;7.65;;;5.10;;
40449;SDS011;41787;53.570;10.032;2022-12-20T14:05:47;9.77;;;5.65;;
40449;SDS011;41787;53.570;10.032;2022-12-20T14:08:14;12.95;;;5.20;;
40449;SDS011;41787;53.570;10.032;2022-12-20T14:10:41;12.10;;;6.10;;
40449;SDS011;41787;53.570;10.032;2022-12-20T14:13:21;10.07;;;5.07;;
40449;SDS011;41787;53.570;10.032;2022-12-20T14:15:47;7.63;;;5.22;;
40449;SDS011;41787;53.570;10.032;2022-12-20T14:18:20;12.70;;;5.75;;
40449;SDS011;41787;53.570;10.032;2022-12-20T14:20:49;7.68;;;5.05;;
40449;SDS011;41787;53.570;10.032;2022-12-20T14:23:17;11.32;;;6.22;;
40449;SDS011;41787;53.570;10.032;2022-12-20T14:25:50;11.77;;;6.07;;
40449;SDS011;41787;53.570;10.032;2022-12-20T14:30:46;9.68;;;5.90;;
40449;SDS011;41787;53.570;10.032;2022-12-20T14:33:45;10.05;;;5.55;;
40449;SDS011;41787;53.570;10.032;2022-12-20T14:36:08;10.95;;;6.07;;
40449;SDS011;41787;53.570;10.032;2022-12-20T14:38:34;10.70;;;5.65;;
40449;SDS011;41787;53.570;10.032;2022-12-20T14:41:00;10.25;;;5.35;;
40449;SDS011;41787;53.570;10.032;2022-12-20T14:43:28;13.32;;;6.32;;
40449;SDS011;41787;53.570;10.032;2022-12-20T14:48:41;12.40;;;6.10;;
40449;SDS011;41787;53.570;10.032;2022-12-20T14:51:07;10.32;;;5.70;;
40449;SDS011;41787;53.570;10.032;2022-12-20T14:53:34;12.93;;;5.82;;
40449;SDS011;41787;53.570;10.032;2022-12-20T14:56:01;11.45;;;6.00;;
40449;SDS011;41787;53.570;10.032;2022-12-20T15:00:54;9.45;;;6.03;;
40449;SDS011;41787;53.570;10.032;2022-12-20T15:03:21;8.20;;;6.75;;
40449;SDS011;41787;53.570;10.032;2022-12-20T15:05:53;11.27;;;6.18;;
40449;SDS011;41787;53.570;10.032;2022-12-20T15:08:24;14.25;;;6.80;;
40449;SDS011;41787;53.570;10.032;2022-12-20T15:13:20;10.95;;;6.03;;
40449;SDS011;41787;53.570;10.032;2022-12-20T15:15:46;14.02;;;6.35;;
40449;SDS011;41787;53.570;10.032;2022-12-20T15:18:14;11.07;;;6.80;;
40449;SDS011;41787;53.570;10.032;2022-12-20T15:20:40;15.65;;;6.88;;
40449;SDS011;41787;53.570;10.032;2022-12-20T15:23:10;15.48;;;6.30;;
40449;SDS011;41787;53.570;10.032;2022-12-20T15:25:38;10.57;;;6.93;;
40449;SDS011;41787;53.570;10.032;2022-12-20T15:28:11;12.05;;;7.25;;
40449;SDS011;41787;53.570;10.032;2022-12-20T15:30:38;11.10;;;6.53;;
40449;SDS011;41787;53.570;10.032;2022-12-20T15:33:03;18.70;;;6.63;;
40449;SDS011;41787;53.570;10.032;2022-12-20T15:35:30;14.88;;;7.25;;
40449;SDS011;41787;53.570;10.032;2022-12-20T15:37:55;15.27;;;6.43;;
40449;SDS011;41787;53.570;10.032;2022-12-20T15:40:21;10.48;;;6.35;;
40449;SDS011;41787;53.570;10.032;2022-12-20T15:42:47;11.55;;;6.88;;
40449;SDS011;41787;53.570;10.032;2022-12-20T15:45:13;12.02;;;6.70;;
40449;SDS011;41787;53.570;10.032;2022-12-20T15:47:42;9.77;;;6.90;;
40449;SDS011;41787;53.570;10.032;2022-12-20T15:50:10;11.83;;;6.67;;
40449;SDS011;41787;53.570;10.032;2022-12-20T15:52:36;10.93;;;6.80;;
40449;SDS011;41787;53.570;10.032;2022-12-20T15:55:02;12.23;;;7.10;;
40449;SDS011;41787;53.570;10.032;2022-12-20T15:57:28;10.00;;;6.03;;
40449;SDS011;41787;53.570;10.032;2022-12-20T15:59:54;14.18;;;7.07;;
40449;SDS011;41787;53.570;10.032;2022-12-20T16:02:24;12.10;;;6.72;;
40449;SDS011;41787;53.570;10.032;2022-12-20T16:04:51;10.75;;;5.78;;
40449;SDS011;41787;53.570;10.032;2022-12-20T16:07:17;8.75;;;5.72;;
40449;SDS011;41787;53.570;10.032;2022-12-20T16:09:43;11.73;;;5.72;;
40449;SDS011;41787;53.570;10.032;2022-12-20T16:12:13;12.13;;;6.13;;
40449;SDS011;41787;53.570;10.032;2022-12-20T16:14:40;7.82;;;4.80;;